sensor_id;sensor_type;location;lat;lon;timestamp;P1;durP1;ratioP1;P2;durP2;ratioP2
7917;SDS011;4004;42.624;23.386;2023-08-31T00:02:01;3.03;;;2.30;;
7917;SDS011;4004;42.624;23.386;2023-08-31T00:04:28;7.47;;;2.50;;
7917;SDS011;4004;42.624;23.386;2023-08-31T00:06:55;4.40;;;2.63;;
7917;SDS011;4004;42.624;23.386;2023-08-31T00:09:24;8.40;;;2.40;;
7917;SDS011;4004;42.624;23.386;2023-08-31T00:11:50;3.83;;;2.20;;
7917;SDS011;4004;42.624;23.386;2023-08-31T00:14:17;4.90;;;2.67;;
7917;SDS011;4004;42.624;23.386;2023-08-31T00:16:44;5.60;;;2.40;;
7917;SDS011;4004;42.624;23.386;2023-08-31T00:19:12;7.50;;;2.80;;
7917;SDS011;4004;42.624;23.386;2023-08-31T00:21:40;5.57;;;2.83;;
7917;SDS011;4004;42.624;23.386;2023-08-31T00:24:07;7.30;;;2.80;;
7917;SDS011;4004;42.624;23.386;2023-08-31T00:26:36;8.03;;;2.50;;
7917;SDS011;4004;42.624;23.386;2023-08-31T00:29:05;4.33;;;2.30;;
7917;SDS011;4004;42.624;23.386;2023-08-31T00:31:32;4.37;;;2.50;;
7917;SDS011;4004;42.624;23.386;2023-08-31T00:33:59;5.83;;;2.73;;
7917;SDS011;4004;42.624;23.386;2023-08-31T00:36:29;5.13;;;2.90;;
7917;SDS011;4004;42.624;23.386;2023-08-31T00:38:56;10.23;;;2.77;;
7917;SDS011;4004;42.624;23.386;2023-08-31T00:41:22;5.40;;;2.53;;
7917;SDS011;4004;42.624;23.386;2023-08-31T00:43:50;4.57;;;2.40;;
7917;SDS011;4004;42.624;23.386;2023-08-31T00:46:17;4.43;;;2.20;;
7917;SDS011;4004;42.624;23.386;2023-08-31T00:48:45;4.27;;;2.47;;
7917;SDS011;4004;42.624;23.386;2023-08-31T00:51:12;7.40;;;2.57;;
7917;SDS011;4004;42.624;23.386;2023-08-31T00:53:39;4.57;;;2.53;;
7917;SDS011;4004;42.624;23.386;2023-08-31T00:56:06;4.40;;;2.50;;
7917;SDS011;4004;42.624;23.386;2023-08-31T00:58:34;5.67;;;2.60;;
7917;SDS011;4004;42.624;23.386;2023-08-31T01:01:04;4.47;;;2.67;;
7917;SDS011;4004;42.624;23.386;2023-08-31T01:03:39;4.97;;;2.33;;
7917;SDS011;4004;42.624;23.386;2023-08-31T01:06:12;3.93;;;2.50;;
7917;SDS011;4004;42.624;23.386;2023-08-31T01:08:47;3.37;;;2.50;;
7917;SDS011;4004;42.624;23.386;2023-08-31T01:11:22;3.57;;;2.30;;
7917;SDS011;4004;42.624;23.386;2023-08-31T01:13:57;5.43;;;2.37;;
7917;SDS011;4004;42.624;23.386;2023-08-31T01:16:30;3.43;;;2.50;;
7917;SDS011;4004;42.624;23.386;2023-08-31T01:19:01;8.50;;;2.53;;
7917;SDS011;4004;42.624;23.386;2023-08-31T01:21:33;4.67;;;2.67;;
7917;SDS011;4004;42.624;23.386;2023-08-31T01:24:07;5.57;;;2.77;;
7917;SDS011;4004;42.624;23.386;2023-08-31T01:26:35;6.27;;;3.03;;
7917;SDS011;4004;42.624;23.386;2023-08-31T01:29:02;3.67;;;2.47;;
7917;SDS011;4004;42.624;23.386;2023-08-31T01:31:29;3.30;;;2.20;;
7917;SDS011;4004;42.624;23.386;2023-08-31T01:33:56;6.37;;;2.60;;
7917;SDS011;4004;42.624;23.386;2023-08-31T01:36:26;5.33;;;2.87;;
7917;SDS011;4004;42.624;23.386;2023-08-31T01:38:55;4.67;;;2.80;;
7917;SDS011;4004;42.624;23.386;2023-08-31T01:41:30;4.93;;;2.93;;
7917;SDS011;4004;42.624;23.386;2023-08-31T01:43:59;4.17;;;2.67;;
7917;SDS011;4004;42.624;23.386;2023-08-31T01:46:27;3.90;;;2.70;;
7917;SDS011;4004;42.624;23.386;2023-08-31T01:48:54;6.10;;;3.13;;
7917;SDS011;4004;42.624;23.386;2023-08-31T01:51:21;6.20;;;2.93;;
7917;SDS011;4004;42.624;23.386;2023-08-31T01:53:47;6.47;;;2.90;;
7917;SDS011;4004;42.624;23.386;2023-08-31T01:56:14;5.27;;;2.53;;
7917;SDS011;4004;42.624;23.386;2023-08-31T01:58:42;8.10;;;2.63;;
7917;SDS011;4004;42.624;23.386;2023-08-31T02:01:09;3.87;;;2.37;;
7917;SDS011;4004;42.624;23.386;2023-08-31T02:03:36;5.33;;;2.63;;
7917;SDS011;4004;42.624;23.386;2023-08-31T02:06:03;8.47;;;2.53;;
7917;SDS011;4004;42.624;23.386;2023-08-31T02:08:30;4.53;;;2.73;;
7917;SDS011;4004;42.624;23.386;2023-08-31T02:10:56;4.97;;;2.60;;
7917;SDS011;4004;42.624;23.386;2023-08-31T02:13:23;5.27;;;2.90;;
7917;SDS011;4004;42.624;23.386;2023-08-31T02:15:52;4.93;;;2.93;;
7917;SDS011;4004;42.624;23.386;2023-08-31T02:18:19;3.97;;;2.47;;
7917;SDS011;4004;42.624;23.386;2023-08-31T02:20:46;8.53;;;2.73;;
7917;SDS011;4004;42.624;23.386;2023-08-31T02:23:13;9.03;;;3.00;;
7917;SDS011;4004;42.624;23.386;2023-08-31T02:25:39;9.57;;;2.57;;
7917;SDS011;4004;42.624;23.386;2023-08-31T02:28:06;7.93;;;2.47;;
7917;SDS011;4004;42.624;23.386;2023-08-31T02:30:33;4.13;;;2.13;;
7917;SDS011;4004;42.624;23.386;2023-08-31T02:33:01;5.23;;;2.47;;
7917;SDS011;4004;42.624;23.386;2023-08-31T02:35:28;7.77;;;2.47;;
7917;SDS011;4004;42.624;23.386;2023-08-31T02:37:55;6.57;;;2.93;;
7917;SDS011;4004;42.624;23.386;2023-08-31T02:40:22;6.37;;;2.80;;
7917;SDS011;4004;42.624;23.386;2023-08-31T02:42:50;7.70;;;2.50;;
7917;SDS011;4004;42.624;23.386;2023-08-31T02:45:17;7.87;;;3.00;;
7917;SDS011;4004;42.624;23.386;2023-08-31T02:47:44;11.03;;;2.57;;
7917;SDS011;4004;42.624;23.386;2023-08-31T02:50:12;5.50;;;2.50;;
7917;SDS011;4004;42.624;23.386;2023-08-31T02:52:39;7.00;;;2.90;;
7917;SDS011;4004;42.624;23.386;2023-08-31T02:55:07;5.33;;;2.70;;
7917;SDS011;4004;42.624;23.386;2023-08-31T02:57:34;6.67;;;2.40;;
7917;SDS011;4004;42.624;23.386;2023-08-31T03:00:01;5.83;;;2.57;;
7917;SDS011;4004;42.624;23.386;2023-08-31T03:02:28;3.53;;;2.33;;
7917;SDS011;4004;42.624;23.386;2023-08-31T03:04:55;4.03;;;2.33;;
7917;SDS011;4004;42.624;23.386;2023-08-31T03:07:23;5.33;;;2.53;;
7917;SDS011;4004;42.624;23.386;2023-08-31T03:09:50;8.43;;;2.83;;
7917;SDS011;4004;42.624;23.386;2023-08-31T03:12:17;12.83;;;3.90;;
7917;SDS011;4004;42.624;23.386;2023-08-31T03:14:44;4.47;;;2.83;;
7917;SDS011;4004;42.624;23.386;2023-08-31T03:17:10;7.13;;;3.40;;
7917;SDS011;4004;42.624;23.386;2023-08-31T03:19:37;4.57;;;2.60;;
7917;SDS011;4004;42.624;23.386;2023-08-31T03:22:04;10.70;;;3.00;;
7917;SDS011;4004;42.624;23.386;2023-08-31T03:24:32;6.47;;;2.83;;
7917;SDS011;4004;42.624;23.386;2023-08-31T03:26:59;6.20;;;3.00;;
7917;SDS011;4004;42.624;23.386;2023-08-31T03:29:26;6.43;;;3.40;;
7917;SDS011;4004;42.624;23.386;2023-08-31T03:31:54;6.20;;;2.70;;
7917;SDS011;4004;42.624;23.386;2023-08-31T03:34:21;5.53;;;3.10;;
7917;SDS011;4004;42.624;23.386;2023-08-31T03:36:48;10.43;;;3.00;;
7917;SDS011;4004;42.624;23.386;2023-08-31T03:39:15;7.70;;;2.33;;
7917;SDS011;4004;42.624;23.386;2023-08-31T03:41:43;15.27;;;2.80;;
7917;SDS011;4004;42.624;23.386;2023-08-31T03:44:10;6.07;;;2.83;;
7917;SDS011;4004;42.624;23.386;2023-08-31T03:46:37;4.67;;;2.83;;
7917;SDS011;4004;42.624;23.386;2023-08-31T03:49:03;5.30;;;3.23;;
7917;SDS011;4004;42.624;23.386;2023-08-31T03:51:30;3.33;;;2.57;;
7917;SDS011;4004;42.624;23.386;2023-08-31T03:53:57;5.67;;;2.90;;
7917;SDS011;4004;42.624;23.386;2023-08-31T03:56:24;4.73;;;2.90;;
7917;SDS011;4004;42.624;23.386;2023-08-31T03:58:53;8.30;;;3.63;;
7917;SDS011;4004;42.624;23.386;2023-08-31T04:01:19;12.90;;;3.93;;
7917;SDS011;4004;42.624;23.386;2023-08-31T04:03:46;11.47;;;3.70;;
7917;SDS011;4004;42.624;23.386;2023-08-31T04:06:13;11.97;;;3.73;;
7917;SDS011;4004;42.624;23.386;2023-08-31T04:08:40;7.53;;;2.70;;
7917;SDS011;4004;42.624;23.386;2023-08-31T04:11:07;8.33;;;2.60;;
7917;SDS011;4004;42.624;23.386;2023-08-31T04:13:34;3.93;;;2.17;;
7917;SDS011;4004;42.624;23.386;2023-08-31T04:16:03;9.20;;;2.80;;
7917;SDS011;4004;42.624;23.386;2023-08-31T04:18:30;5.70;;;2.53;;
7917;SDS011;4004;42.624;23.386;2023-08-31T04:20:56;3.10;;;2.27;;
7917;SDS011;4004;42.624;23.386;2023-08-31T04:23:24;7.57;;;2.50;;
7917;SDS011;4004;42.624;23.386;2023-08-31T04:25:51;11.43;;;3.47;;
7917;SDS011;4004;42.624;23.386;2023-08-31T04:28:18;9.97;;;3.00;;
7917;SDS011;4004;42.624;23.386;2023-08-31T04:30:45;9.40;;;2.90;;
7917;SDS011;4004;42.624;23.386;2023-08-31T04:33:13;5.23;;;2.17;;
7917;SDS011;4004;42.624;23.386;2023-08-31T04:35:40;5.87;;;2.70;;
7917;SDS011;4004;42.624;23.386;2023-08-31T04:38:07;5.00;;;2.63;;
7917;SDS011;4004;42.624;23.386;2023-08-31T04:40:34;5.17;;;2.40;;
7917;SDS011;4004;42.624;23.386;2023-08-31T04:43:02;11.93;;;2.67;;
7917;SDS011;4004;42.624;23.386;2023-08-31T04:45:30;8.37;;;3.00;;
7917;SDS011;4004;42.624;23.386;2023-08-31T04:47:56;6.60;;;2.30;;
7917;SDS011;4004;42.624;23.386;2023-08-31T04:50:25;8.27;;;2.63;;
7917;SDS011;4004;42.624;23.386;2023-08-31T04:52:51;9.67;;;2.70;;
7917;SDS011;4004;42.624;23.386;2023-08-31T04:55:20;19.27;;;3.83;;
7917;SDS011;4004;42.624;23.386;2023-08-31T04:57:47;6.03;;;2.80;;
7917;SDS011;4004;42.624;23.386;2023-08-31T05:00:14;7.47;;;2.87;;
7917;SDS011;4004;42.624;23.386;2023-08-31T05:02:42;5.23;;;2.40;;
7917;SDS011;4004;42.624;23.386;2023-08-31T05:05:09;17.17;;;3.70;;
7917;SDS011;4004;42.624;23.386;2023-08-31T05:07:37;23.73;;;5.03;;
7917;SDS011;4004;42.624;23.386;2023-08-31T05:10:05;22.37;;;4.37;;
7917;SDS011;4004;42.624;23.386;2023-08-31T05:12:33;14.27;;;3.83;;
7917;SDS011;4004;42.624;23.386;2023-08-31T05:14:59;9.93;;;2.87;;
7917;SDS011;4004;42.624;23.386;2023-08-31T05:17:26;9.10;;;3.20;;
7917;SDS011;4004;42.624;23.386;2023-08-31T05:19:53;11.47;;;2.73;;
7917;SDS011;4004;42.624;23.386;2023-08-31T05:22:19;6.83;;;2.50;;
7917;SDS011;4004;42.624;23.386;2023-08-31T05:24:48;9.03;;;2.90;;
7917;SDS011;4004;42.624;23.386;2023-08-31T05:27:15;24.27;;;4.03;;
7917;SDS011;4004;42.624;23.386;2023-08-31T05:29:42;19.03;;;4.10;;
7917;SDS011;4004;42.624;23.386;2023-08-31T05:32:09;22.17;;;4.20;;
7917;SDS011;4004;42.624;23.386;2023-08-31T05:34:35;18.57;;;3.23;;
7917;SDS011;4004;42.624;23.386;2023-08-31T05:37:04;11.50;;;3.50;;
7917;SDS011;4004;42.624;23.386;2023-08-31T05:39:31;46.23;;;5.83;;
7917;SDS011;4004;42.624;23.386;2023-08-31T05:42:00;14.43;;;3.90;;
7917;SDS011;4004;42.624;23.386;2023-08-31T05:44:27;7.63;;;3.20;;
7917;SDS011;4004;42.624;23.386;2023-08-31T05:46:53;10.50;;;3.13;;
7917;SDS011;4004;42.624;23.386;2023-08-31T05:49:20;8.77;;;3.60;;
7917;SDS011;4004;42.624;23.386;2023-08-31T05:51:47;10.60;;;3.03;;
7917;SDS011;4004;42.624;23.386;2023-08-31T05:54:14;8.00;;;2.77;;
7917;SDS011;4004;42.624;23.386;2023-08-31T05:56:41;7.83;;;3.20;;
7917;SDS011;4004;42.624;23.386;2023-08-31T05:59:09;8.20;;;2.30;;
7917;SDS011;4004;42.624;23.386;2023-08-31T06:01:35;13.37;;;2.83;;
7917;SDS011;4004;42.624;23.386;2023-08-31T06:04:02;7.83;;;3.03;;
7917;SDS011;4004;42.624;23.386;2023-08-31T06:06:30;6.37;;;2.90;;
7917;SDS011;4004;42.624;23.386;2023-08-31T06:08:57;10.97;;;2.77;;
7917;SDS011;4004;42.624;23.386;2023-08-31T06:11:24;5.57;;;3.07;;
7917;SDS011;4004;42.624;23.386;2023-08-31T06:13:51;9.87;;;2.47;;
7917;SDS011;4004;42.624;23.386;2023-08-31T06:16:19;7.33;;;2.83;;
7917;SDS011;4004;42.624;23.386;2023-08-31T06:18:46;5.87;;;2.50;;
7917;SDS011;4004;42.624;23.386;2023-08-31T06:21:12;7.23;;;2.27;;
7917;SDS011;4004;42.624;23.386;2023-08-31T06:23:39;16.77;;;3.20;;
7917;SDS011;4004;42.624;23.386;2023-08-31T06:26:06;8.87;;;3.40;;
7917;SDS011;4004;42.624;23.386;2023-08-31T06:28:33;7.03;;;3.20;;
7917;SDS011;4004;42.624;23.386;2023-08-31T06:30:59;10.63;;;3.47;;
7917;SDS011;4004;42.624;23.386;2023-08-31T06:33:27;12.57;;;3.40;;
7917;SDS011;4004;42.624;23.386;2023-08-31T06:35:54;14.83;;;3.60;;
7917;SDS011;4004;42.624;23.386;2023-08-31T06:38:21;6.73;;;2.47;;
7917;SDS011;4004;42.624;23.386;2023-08-31T06:40:48;7.40;;;2.73;;
7917;SDS011;4004;42.624;23.386;2023-08-31T06:43:14;12.93;;;3.07;;
7917;SDS011;4004;42.624;23.386;2023-08-31T06:45:41;6.13;;;2.90;;
7917;SDS011;4004;42.624;23.386;2023-08-31T06:48:08;10.67;;;3.07;;
7917;SDS011;4004;42.624;23.386;2023-08-31T06:50:36;8.83;;;3.10;;
7917;SDS011;4004;42.624;23.386;2023-08-31T06:53:03;6.63;;;2.53;;
7917;SDS011;4004;42.624;23.386;2023-08-31T06:55:30;11.20;;;3.17;;
7917;SDS011;4004;42.624;23.386;2023-08-31T06:57:59;4.67;;;2.03;;
7917;SDS011;4004;42.624;23.386;2023-08-31T07:00:25;5.83;;;2.20;;
7917;SDS011;4004;42.624;23.386;2023-08-31T07:02:52;9.23;;;2.47;;
7917;SDS011;4004;42.624;23.386;2023-08-31T07:05:19;11.33;;;2.53;;
7917;SDS011;4004;42.624;23.386;2023-08-31T07:07:53;8.90;;;2.50;;
7917;SDS011;4004;42.624;23.386;2023-08-31T07:10:20;11.27;;;3.00;;
7917;SDS011;4004;42.624;23.386;2023-08-31T07:12:47;11.67;;;2.60;;
7917;SDS011;4004;42.624;23.386;2023-08-31T07:15:14;11.13;;;2.70;;
7917;SDS011;4004;42.624;23.386;2023-08-31T07:17:41;7.53;;;3.07;;
7917;SDS011;4004;42.624;23.386;2023-08-31T07:20:08;13.83;;;2.93;;
7917;SDS011;4004;42.624;23.386;2023-08-31T07:22:36;18.20;;;3.90;;
7917;SDS011;4004;42.624;23.386;2023-08-31T07:25:05;12.48;;;3.55;;
7917;SDS011;4004;42.624;23.386;2023-08-31T07:27:32;8.67;;;3.17;;
7917;SDS011;4004;42.624;23.386;2023-08-31T07:29:59;8.00;;;2.87;;
7917;SDS011;4004;42.624;23.386;2023-08-31T07:32:28;9.20;;;3.07;;
7917;SDS011;4004;42.624;23.386;2023-08-31T07:34:55;5.80;;;2.77;;
7917;SDS011;4004;42.624;23.386;2023-08-31T07:37:21;6.80;;;3.00;;
7917;SDS011;4004;42.624;23.386;2023-08-31T07:39:48;7.77;;;3.17;;
7917;SDS011;4004;42.624;23.386;2023-08-31T07:42:16;7.53;;;3.00;;
7917;SDS011;4004;42.624;23.386;2023-08-31T07:44:43;10.30;;;3.40;;
7917;SDS011;4004;42.624;23.386;2023-08-31T07:47:10;9.17;;;3.13;;
7917;SDS011;4004;42.624;23.386;2023-08-31T07:49:37;13.43;;;3.97;;
7917;SDS011;4004;42.624;23.386;2023-08-31T07:52:03;9.50;;;3.40;;
7917;SDS011;4004;42.624;23.386;2023-08-31T07:54:30;9.37;;;3.60;;
7917;SDS011;4004;42.624;23.386;2023-08-31T07:56:57;7.53;;;3.67;;
7917;SDS011;4004;42.624;23.386;2023-08-31T07:59:25;13.70;;;4.70;;
7917;SDS011;4004;42.624;23.386;2023-08-31T08:01:52;10.20;;;3.47;;
7917;SDS011;4004;42.624;23.386;2023-08-31T08:04:19;8.47;;;3.60;;
7917;SDS011;4004;42.624;23.386;2023-08-31T08:06:46;9.43;;;3.40;;
7917;SDS011;4004;42.624;23.386;2023-08-31T08:09:15;10.13;;;3.67;;
7917;SDS011;4004;42.624;23.386;2023-08-31T08:11:42;9.87;;;3.13;;
7917;SDS011;4004;42.624;23.386;2023-08-31T08:14:09;14.23;;;3.60;;
7917;SDS011;4004;42.624;23.386;2023-08-31T08:16:37;8.63;;;2.93;;
7917;SDS011;4004;42.624;23.386;2023-08-31T08:19:05;10.00;;;3.43;;
7917;SDS011;4004;42.624;23.386;2023-08-31T08:21:32;8.10;;;3.60;;
7917;SDS011;4004;42.624;23.386;2023-08-31T08:23:59;9.27;;;3.40;;
7917;SDS011;4004;42.624;23.386;2023-08-31T08:26:25;7.93;;;3.20;;
7917;SDS011;4004;42.624;23.386;2023-08-31T08:28:53;11.20;;;3.20;;
7917;SDS011;4004;42.624;23.386;2023-08-31T08:31:20;9.10;;;3.47;;
7917;SDS011;4004;42.624;23.386;2023-08-31T08:33:48;5.77;;;3.20;;
7917;SDS011;4004;42.624;23.386;2023-08-31T08:36:15;5.87;;;2.90;;
7917;SDS011;4004;42.624;23.386;2023-08-31T08:38:41;8.50;;;2.80;;
7917;SDS011;4004;42.624;23.386;2023-08-31T08:41:08;9.63;;;3.43;;
7917;SDS011;4004;42.624;23.386;2023-08-31T08:43:36;8.50;;;2.97;;
7917;SDS011;4004;42.624;23.386;2023-08-31T08:46:07;6.80;;;3.17;;
7917;SDS011;4004;42.624;23.386;2023-08-31T08:48:35;10.07;;;4.47;;
7917;SDS011;4004;42.624;23.386;2023-08-31T08:51:05;11.00;;;5.07;;
7917;SDS011;4004;42.624;23.386;2023-08-31T08:53:33;5.93;;;4.37;;
7917;SDS011;4004;42.624;23.386;2023-08-31T08:56:03;11.63;;;4.90;;
7917;SDS011;4004;42.624;23.386;2023-08-31T08:58:30;8.60;;;4.50;;
7917;SDS011;4004;42.624;23.386;2023-08-31T09:00:57;8.70;;;4.40;;
7917;SDS011;4004;42.624;23.386;2023-08-31T09:03:23;7.97;;;4.47;;
7917;SDS011;4004;42.624;23.386;2023-08-31T09:05:50;4.80;;;4.20;;
7917;SDS011;4004;42.624;23.386;2023-08-31T09:08:25;13.10;;;5.17;;
7917;SDS011;4004;42.624;23.386;2023-08-31T09:10:54;13.03;;;5.10;;
7917;SDS011;4004;42.624;23.386;2023-08-31T09:13:21;6.70;;;4.37;;
7917;SDS011;4004;42.624;23.386;2023-08-31T09:15:54;8.27;;;4.60;;
7917;SDS011;4004;42.624;23.386;2023-08-31T09:18:23;9.47;;;4.67;;
7917;SDS011;4004;42.624;23.386;2023-08-31T09:20:51;11.90;;;5.30;;
7917;SDS011;4004;42.624;23.386;2023-08-31T09:23:20;6.90;;;4.67;;
7917;SDS011;4004;42.624;23.386;2023-08-31T09:25:47;8.07;;;4.37;;
7917;SDS011;4004;42.624;23.386;2023-08-31T09:28:16;7.73;;;4.90;;
7917;SDS011;4004;42.624;23.386;2023-08-31T09:30:46;6.03;;;4.50;;
7917;SDS011;4004;42.624;23.386;2023-08-31T09:33:14;6.30;;;4.53;;
7917;SDS011;4004;42.624;23.386;2023-08-31T09:35:46;9.27;;;5.10;;
7917;SDS011;4004;42.624;23.386;2023-08-31T09:38:15;9.20;;;4.60;;
7917;SDS011;4004;42.624;23.386;2023-08-31T09:40:43;9.17;;;4.47;;
7917;SDS011;4004;42.624;23.386;2023-08-31T09:43:10;5.27;;;4.53;;
7917;SDS011;4004;42.624;23.386;2023-08-31T09:45:37;6.53;;;4.60;;
7917;SDS011;4004;42.624;23.386;2023-08-31T09:48:05;13.20;;;4.80;;
7917;SDS011;4004;42.624;23.386;2023-08-31T09:50:32;9.03;;;4.53;;
7917;SDS011;4004;42.624;23.386;2023-08-31T09:53:00;6.37;;;4.07;;
7917;SDS011;4004;42.624;23.386;2023-08-31T09:55:29;7.80;;;4.30;;
7917;SDS011;4004;42.624;23.386;2023-08-31T09:57:59;5.47;;;4.73;;
7917;SDS011;4004;42.624;23.386;2023-08-31T10:00:28;6.13;;;4.70;;
7917;SDS011;4004;42.624;23.386;2023-08-31T10:02:57;10.90;;;4.47;;
7917;SDS011;4004;42.624;23.386;2023-08-31T10:05:26;8.03;;;4.10;;
7917;SDS011;4004;42.624;23.386;2023-08-31T10:07:54;13.63;;;4.80;;
7917;SDS011;4004;42.624;23.386;2023-08-31T10:10:21;13.50;;;5.07;;
7917;SDS011;4004;42.624;23.386;2023-08-31T10:12:49;5.73;;;4.00;;
7917;SDS011;4004;42.624;23.386;2023-08-31T10:15:18;7.30;;;4.27;;
7917;SDS011;4004;42.624;23.386;2023-08-31T10:17:45;4.70;;;4.13;;
7917;SDS011;4004;42.624;23.386;2023-08-31T10:20:13;6.27;;;4.10;;
7917;SDS011;4004;42.624;23.386;2023-08-31T10:22:42;5.97;;;3.90;;
7917;SDS011;4004;42.624;23.386;2023-08-31T10:25:09;6.50;;;4.50;;
7917;SDS011;4004;42.624;23.386;2023-08-31T10:27:37;4.57;;;3.60;;
7917;SDS011;4004;42.624;23.386;2023-08-31T10:35:49;7.07;;;4.57;;
7917;SDS011;4004;42.624;23.386;2023-08-31T10:38:23;5.90;;;3.90;;
7917;SDS011;4004;42.624;23.386;2023-08-31T10:41:00;8.13;;;4.83;;
7917;SDS011;4004;42.624;23.386;2023-08-31T10:43:42;8.67;;;4.40;;
7917;SDS011;4004;42.624;23.386;2023-08-31T10:46:18;10.60;;;4.33;;
7917;SDS011;4004;42.624;23.386;2023-08-31T10:48:56;7.17;;;4.57;;
7917;SDS011;4004;42.624;23.386;2023-08-31T10:51:24;11.10;;;5.33;;
7917;SDS011;4004;42.624;23.386;2023-08-31T10:53:52;6.00;;;4.30;;
7917;SDS011;4004;42.624;23.386;2023-08-31T10:56:29;6.83;;;4.47;;
7917;SDS011;4004;42.624;23.386;2023-08-31T10:58:57;6.17;;;4.43;;
7917;SDS011;4004;42.624;23.386;2023-08-31T11:04:25;9.70;;;4.33;;
7917;SDS011;4004;42.624;23.386;2023-08-31T11:07:11;5.97;;;4.63;;
7917;SDS011;4004;42.624;23.386;2023-08-31T11:09:39;8.47;;;5.23;;
7917;SDS011;4004;42.624;23.386;2023-08-31T11:12:06;7.53;;;4.40;;
7917;SDS011;4004;42.624;23.386;2023-08-31T11:14:34;5.07;;;3.90;;
7917;SDS011;4004;42.624;23.386;2023-08-31T11:17:02;10.13;;;4.60;;
7917;SDS011;4004;42.624;23.386;2023-08-31T11:19:30;6.20;;;4.63;;
7917;SDS011;4004;42.624;23.386;2023-08-31T11:21:57;11.70;;;4.40;;
7917;SDS011;4004;42.624;23.386;2023-08-31T11:24:26;9.87;;;4.83;;
7917;SDS011;4004;42.624;23.386;2023-08-31T11:26:53;8.30;;;4.37;;
7917;SDS011;4004;42.624;23.386;2023-08-31T11:29:20;8.07;;;4.37;;
7917;SDS011;4004;42.624;23.386;2023-08-31T11:31:47;9.67;;;4.27;;
7917;SDS011;4004;42.624;23.386;2023-08-31T11:34:16;6.30;;;4.20;;
7917;SDS011;4004;42.624;23.386;2023-08-31T11:36:44;8.93;;;4.23;;
7917;SDS011;4004;42.624;23.386;2023-08-31T11:39:12;5.30;;;4.30;;
7917;SDS011;4004;42.624;23.386;2023-08-31T11:41:39;7.60;;;4.60;;
7917;SDS011;4004;42.624;23.386;2023-08-31T11:44:08;9.43;;;4.57;;
7917;SDS011;4004;42.624;23.386;2023-08-31T11:46:35;8.20;;;3.67;;
7917;SDS011;4004;42.624;23.386;2023-08-31T11:49:03;7.73;;;3.87;;
7917;SDS011;4004;42.624;23.386;2023-08-31T11:51:32;7.23;;;4.23;;
7917;SDS011;4004;42.624;23.386;2023-08-31T11:53:59;6.13;;;4.03;;
7917;SDS011;4004;42.624;23.386;2023-08-31T11:56:27;8.47;;;3.93;;
7917;SDS011;4004;42.624;23.386;2023-08-31T11:58:54;8.47;;;4.37;;
7917;SDS011;4004;42.624;23.386;2023-08-31T12:01:22;7.83;;;3.57;;
7917;SDS011;4004;42.624;23.386;2023-08-31T12:03:49;7.60;;;4.50;;
7917;SDS011;4004;42.624;23.386;2023-08-31T12:06:17;7.20;;;3.70;;
7917;SDS011;4004;42.624;23.386;2023-08-31T12:08:45;4.73;;;3.43;;
7917;SDS011;4004;42.624;23.386;2023-08-31T12:11:12;6.60;;;3.50;;
7917;SDS011;4004;42.624;23.386;2023-08-31T12:13:40;4.60;;;3.30;;
7917;SDS011;4004;42.624;23.386;2023-08-31T12:16:11;5.87;;;3.63;;
7917;SDS011;4004;42.624;23.386;2023-08-31T12:18:39;9.83;;;3.23;;
7917;SDS011;4004;42.624;23.386;2023-08-31T12:21:05;4.10;;;3.37;;
7917;SDS011;4004;42.624;23.386;2023-08-31T12:23:32;6.47;;;3.97;;
7917;SDS011;4004;42.624;23.386;2023-08-31T12:26:01;5.57;;;3.33;;
7917;SDS011;4004;42.624;23.386;2023-08-31T12:28:29;5.60;;;3.33;;
7917;SDS011;4004;42.624;23.386;2023-08-31T12:30:56;6.53;;;3.60;;
7917;SDS011;4004;42.624;23.386;2023-08-31T12:33:22;8.23;;;3.80;;
7917;SDS011;4004;42.624;23.386;2023-08-31T12:35:49;5.73;;;3.40;;
7917;SDS011;4004;42.624;23.386;2023-08-31T12:38:16;7.37;;;3.70;;
7917;SDS011;4004;42.624;23.386;2023-08-31T12:40:44;8.53;;;3.73;;
7917;SDS011;4004;42.624;23.386;2023-08-31T12:43:12;10.27;;;4.13;;
7917;SDS011;4004;42.624;23.386;2023-08-31T12:45:39;6.13;;;3.60;;
7917;SDS011;4004;42.624;23.386;2023-08-31T12:48:06;11.23;;;3.73;;
7917;SDS011;4004;42.624;23.386;2023-08-31T12:50:33;7.03;;;3.40;;
7917;SDS011;4004;42.624;23.386;2023-08-31T12:53:00;8.00;;;4.20;;
7917;SDS011;4004;42.624;23.386;2023-08-31T12:55:26;6.37;;;3.57;;
7917;SDS011;4004;42.624;23.386;2023-08-31T12:57:54;6.72;;;3.70;;
7917;SDS011;4004;42.624;23.386;2023-08-31T13:00:23;6.10;;;3.27;;
7917;SDS011;4004;42.624;23.386;2023-08-31T13:02:50;7.97;;;3.37;;
7917;SDS011;4004;42.624;23.386;2023-08-31T13:05:17;7.37;;;3.60;;
7917;SDS011;4004;42.624;23.386;2023-08-31T13:07:45;9.10;;;3.77;;
7917;SDS011;4004;42.624;23.386;2023-08-31T13:10:11;15.27;;;4.17;;
7917;SDS011;4004;42.624;23.386;2023-08-31T13:12:38;5.47;;;3.17;;
7917;SDS011;4004;42.624;23.386;2023-08-31T13:15:05;13.83;;;4.67;;
7917;SDS011;4004;42.624;23.386;2023-08-31T13:17:34;9.20;;;3.70;;
7917;SDS011;4004;42.624;23.386;2023-08-31T13:20:01;9.47;;;3.70;;
7917;SDS011;4004;42.624;23.386;2023-08-31T13:22:29;6.23;;;3.60;;
7917;SDS011;4004;42.624;23.386;2023-08-31T13:24:56;3.97;;;3.20;;
7917;SDS011;4004;42.624;23.386;2023-08-31T13:27:23;5.17;;;3.83;;
7917;SDS011;4004;42.624;23.386;2023-08-31T13:29:51;5.33;;;3.73;;
7917;SDS011;4004;42.624;23.386;2023-08-31T13:32:17;10.07;;;4.50;;
7917;SDS011;4004;42.624;23.386;2023-08-31T13:34:45;8.03;;;3.90;;
7917;SDS011;4004;42.624;23.386;2023-08-31T13:37:12;6.83;;;3.77;;
7917;SDS011;4004;42.624;23.386;2023-08-31T13:39:39;4.73;;;3.37;;
7917;SDS011;4004;42.624;23.386;2023-08-31T13:42:06;7.97;;;3.67;;
7917;SDS011;4004;42.624;23.386;2023-08-31T13:44:33;8.17;;;3.07;;
7917;SDS011;4004;42.624;23.386;2023-08-31T13:47:00;6.27;;;3.63;;
7917;SDS011;4004;42.624;23.386;2023-08-31T13:49:28;8.87;;;3.27;;
7917;SDS011;4004;42.624;23.386;2023-08-31T13:51:56;9.60;;;4.27;;
7917;SDS011;4004;42.624;23.386;2023-08-31T13:54:25;19.97;;;5.07;;
7917;SDS011;4004;42.624;23.386;2023-08-31T13:56:52;6.33;;;3.60;;
7917;SDS011;4004;42.624;23.386;2023-08-31T13:59:19;6.20;;;3.60;;
7917;SDS011;4004;42.624;23.386;2023-08-31T14:01:45;6.47;;;3.10;;
7917;SDS011;4004;42.624;23.386;2023-08-31T14:04:12;9.97;;;3.40;;
7917;SDS011;4004;42.624;23.386;2023-08-31T14:06:39;7.23;;;3.33;;
7917;SDS011;4004;42.624;23.386;2023-08-31T14:09:07;5.23;;;3.40;;
7917;SDS011;4004;42.624;23.386;2023-08-31T14:11:34;9.73;;;4.63;;
7917;SDS011;4004;42.624;23.386;2023-08-31T14:14:02;9.03;;;3.20;;
7917;SDS011;4004;42.624;23.386;2023-08-31T14:16:35;10.57;;;3.67;;
7917;SDS011;4004;42.624;23.386;2023-08-31T14:19:02;8.57;;;3.87;;
7917;SDS011;4004;42.624;23.386;2023-08-31T14:21:29;7.20;;;3.70;;
7917;SDS011;4004;42.624;23.386;2023-08-31T14:23:56;8.30;;;3.13;;
7917;SDS011;4004;42.624;23.386;2023-08-31T14:26:24;8.33;;;3.30;;
7917;SDS011;4004;42.624;23.386;2023-08-31T14:28:51;9.00;;;2.93;;
7917;SDS011;4004;42.624;23.386;2023-08-31T14:31:18;10.77;;;3.27;;
7917;SDS011;4004;42.624;23.386;2023-08-31T14:33:45;9.87;;;3.80;;
7917;SDS011;4004;42.624;23.386;2023-08-31T14:36:14;10.53;;;3.73;;
7917;SDS011;4004;42.624;23.386;2023-08-31T14:38:41;6.23;;;2.97;;
7917;SDS011;4004;42.624;23.386;2023-08-31T14:41:08;8.97;;;3.50;;
7917;SDS011;4004;42.624;23.386;2023-08-31T14:43:37;5.97;;;3.27;;
7917;SDS011;4004;42.624;23.386;2023-08-31T14:46:03;8.00;;;3.00;;
7917;SDS011;4004;42.624;23.386;2023-08-31T14:48:30;6.47;;;3.23;;
7917;SDS011;4004;42.624;23.386;2023-08-31T14:50:58;9.13;;;3.33;;
7917;SDS011;4004;42.624;23.386;2023-08-31T14:53:25;5.57;;;3.30;;
7917;SDS011;4004;42.624;23.386;2023-08-31T14:55:53;9.47;;;3.77;;
7917;SDS011;4004;42.624;23.386;2023-08-31T14:58:20;8.50;;;3.27;;
7917;SDS011;4004;42.624;23.386;2023-08-31T15:00:48;6.20;;;3.13;;
7917;SDS011;4004;42.624;23.386;2023-08-31T15:03:15;5.07;;;3.37;;
7917;SDS011;4004;42.624;23.386;2023-08-31T15:05:41;6.83;;;3.70;;
7917;SDS011;4004;42.624;23.386;2023-08-31T15:08:08;5.77;;;3.50;;
7917;SDS011;4004;42.624;23.386;2023-08-31T15:10:37;6.67;;;3.30;;